createdAt,value
2018-05-26T00:00:50.733Z,13.31
2018-05-26T00:02:49.922Z,13.26
2018-05-26T00:04:50.352Z,13.26
2018-05-26T00:06:50.747Z,13.22
2018-05-26T00:08:50.115Z,13.21
2018-05-26T00:10:50.259Z,13.20
2018-05-26T00:12:50.448Z,13.16
2018-05-26T00:14:50.626Z,13.14
2018-05-26T00:16:49.995Z,13.13
2018-05-26T00:18:50.206Z,13.11
2018-05-26T00:20:50.396Z,13.12
2018-05-26T00:22:50.677Z,13.12
2018-05-26T00:24:50.859Z,13.12
2018-05-26T00:26:50.080Z,13.13
2018-05-26T00:28:50.214Z,13.12
2018-05-26T00:30:50.442Z,13.12
2018-05-26T00:32:50.581Z,13.09
2018-05-26T00:34:50.157Z,13.09
2018-05-26T00:36:50.525Z,13.09
2018-05-26T00:38:50.824Z,13.12
2018-05-26T00:40:50.100Z,13.15
2018-05-26T00:42:50.360Z,13.17
2018-05-26T00:44:50.581Z,13.17
2018-05-26T00:46:49.954Z,13.12
2018-05-26T00:48:50.163Z,13.09
2018-05-26T00:50:50.378Z,13.05
2018-05-26T00:52:50.580Z,13.04
2018-05-26T00:54:50.830Z,13.04
2018-05-26T00:56:50.209Z,13.02
2018-05-26T00:58:50.507Z,13.04
2018-05-26T01:00:50.807Z,13.08
2018-05-26T01:02:50.072Z,13.08
2018-05-26T01:04:50.505Z,13.10
2018-05-26T01:06:50.820Z,13.08
2018-05-26T01:08:50.018Z,13.03
2018-05-26T01:10:50.249Z,13.00
2018-05-26T01:12:50.579Z,12.98
2018-05-26T01:14:50.785Z,12.93
2018-05-26T01:16:50.126Z,12.92
2018-05-26T01:18:50.454Z,12.91
2018-05-26T01:20:50.721Z,12.89
2018-05-26T01:22:49.931Z,12.87
2018-05-26T01:24:50.286Z,12.84
2018-05-26T01:26:50.658Z,12.84
2018-05-26T01:28:49.973Z,12.83
2018-05-26T01:30:50.230Z,12.81
2018-05-26T01:32:50.438Z,12.81
2018-05-26T01:34:50.807Z,12.83
2018-05-26T01:36:50.142Z,12.82
2018-05-26T01:38:50.348Z,12.80
2018-05-26T01:40:50.566Z,12.79
2018-05-26T01:42:50.748Z,12.78
2018-05-26T01:44:49.996Z,12.76
2018-05-26T01:46:50.280Z,12.76
2018-05-26T01:48:50.509Z,12.73
2018-05-26T01:50:50.807Z,12.71
2018-05-26T01:52:50.050Z,12.70
2018-05-26T01:54:50.357Z,12.68
2018-05-26T01:56:50.648Z,12.65
2018-05-26T01:58:50.818Z,12.66
2018-05-26T02:00:50.058Z,12.66
2018-05-26T02:02:50.336Z,12.67
2018-05-26T02:04:50.782Z,12.66
2018-05-26T02:06:50.149Z,12.64
2018-05-26T02:08:50.265Z,12.63
2018-05-26T02:10:50.567Z,12.58
2018-05-26T02:12:50.807Z,12.56
2018-05-26T02:14:50.140Z,12.54
2018-05-26T02:16:50.480Z,12.54
2018-05-26T02:18:50.651Z,12.52
2018-05-26T02:20:50.858Z,12.50
2018-05-26T02:22:49.980Z,12.48
2018-05-26T02:24:50.123Z,12.46
2018-05-26T02:26:50.486Z,12.44
2018-05-26T02:28:50.652Z,12.45
2018-05-26T02:30:49.928Z,12.45
2018-05-26T02:32:50.132Z,12.44
2018-05-26T02:34:50.465Z,12.43
2018-05-26T02:36:50.842Z,12.39
2018-05-26T02:38:50.259Z,12.39
2018-05-26T02:40:50.492Z,12.36
2018-05-26T02:42:50.682Z,12.36
2018-05-26T02:44:50.882Z,12.40
2018-05-26T02:46:50.192Z,12.37
2018-05-26T02:48:50.447Z,12.34
2018-05-26T02:50:50.647Z,12.30
2018-05-26T02:52:49.911Z,12.29
2018-05-26T02:54:50.081Z,12.28
2018-05-26T02:56:50.430Z,12.23
2018-05-26T02:58:50.626Z,12.22
2018-05-26T03:00:50.888Z,12.20
2018-05-26T03:02:50.125Z,12.20
2018-05-26T03:04:50.482Z,12.21
2018-05-26T03:06:49.889Z,12.19
2018-05-26T03:08:50.131Z,12.19
2018-05-26T03:10:50.306Z,12.17
2018-05-26T03:12:50.511Z,12.17
2018-05-26T03:14:50.722Z,12.16
2018-05-26T03:16:50.667Z,12.16
2018-05-26T03:18:50.843Z,12.16
2018-05-26T03:20:50.054Z,12.15
2018-05-26T03:22:50.251Z,12.13
2018-05-26T03:24:50.472Z,12.10
2018-05-26T03:26:50.749Z,12.10
2018-05-26T03:28:49.916Z,12.12
2018-05-26T03:30:50.103Z,12.15
2018-05-26T03:32:50.281Z,12.18
2018-05-26T03:34:50.763Z,12.18
2018-05-26T03:36:50.252Z,12.19
2018-05-26T03:38:50.490Z,12.19
2018-05-26T03:40:50.700Z,12.21
2018-05-26T03:42:50.866Z,12.22
2018-05-26T03:44:50.023Z,12.22
2018-05-26T03:46:50.376Z,12.23
2018-05-26T03:48:50.575Z,12.25
2018-05-26T03:50:50.825Z,12.34
2018-05-26T03:52:50.057Z,12.36
2018-05-26T03:54:50.289Z,12.38
2018-05-26T03:56:50.697Z,12.38
2018-05-26T03:58:50.870Z,12.39
2018-05-26T04:00:50.109Z,12.41
2018-05-26T04:02:50.338Z,12.41
2018-05-26T04:04:50.771Z,12.46
2018-05-26T04:06:50.276Z,12.52
2018-05-26T04:08:50.480Z,12.57
2018-05-26T04:10:50.744Z,12.61
2018-05-26T04:12:49.939Z,12.63
2018-05-26T04:14:50.163Z,12.66
2018-05-26T04:16:50.437Z,12.70
2018-05-26T04:18:50.691Z,12.76
2018-05-26T04:20:50.915Z,12.79
2018-05-26T04:22:50.106Z,12.86
2018-05-26T04:24:50.321Z,12.89
2018-05-26T04:26:49.986Z,12.96
2018-05-26T04:28:50.191Z,12.98
2018-05-26T04:30:50.325Z,12.98
2018-05-26T04:32:50.445Z,12.98
2018-05-26T04:34:50.851Z,12.97
2018-05-26T04:36:50.068Z,12.94
2018-05-26T04:38:50.198Z,12.92
2018-05-26T04:40:50.420Z,12.92
2018-05-26T04:42:50.576Z,12.90
2018-05-26T04:44:50.804Z,12.88
2018-05-26T04:46:50.187Z,12.87
2018-05-26T04:48:50.420Z,12.89
2018-05-26T04:50:50.659Z,12.91
2018-05-26T04:52:50.830Z,12.93
2018-05-26T04:54:50.028Z,12.94
2018-05-26T04:56:50.450Z,12.97
2018-05-26T04:58:50.722Z,12.99
2018-05-26T05:00:50.027Z,13.06
2018-05-26T05:02:50.299Z,13.09
2018-05-26T05:04:50.685Z,13.19
2018-05-26T05:06:50.114Z,13.24
2018-05-26T05:08:50.416Z,13.34
2018-05-26T05:10:50.759Z,13.40
2018-05-26T05:12:49.952Z,13.55
2018-05-26T05:14:50.180Z,13.75
2018-05-26T05:16:50.504Z,13.75
2018-05-26T05:18:50.690Z,14.06
2018-05-26T05:20:49.874Z,14.15
2018-05-26T05:22:50.034Z,14.31
2018-05-26T05:24:50.191Z,14.42
2018-05-26T05:26:51.021Z,14.59
2018-05-26T05:28:50.466Z,14.66
2018-05-26T05:30:50.613Z,14.77
2018-05-26T05:32:50.753Z,14.81
2018-05-26T05:34:50.067Z,14.98
2018-05-26T05:36:50.074Z,15.07
2018-05-26T05:38:50.212Z,15.24
2018-05-26T05:40:50.408Z,15.45
2018-05-26T05:42:50.517Z,15.52
2018-05-26T05:44:50.690Z,15.70
2018-05-26T05:46:50.046Z,15.76
2018-05-26T05:48:50.262Z,15.91
2018-05-26T05:50:50.390Z,16.03
2018-05-26T05:52:50.565Z,16.15
2018-05-26T05:54:50.744Z,16.22
2018-05-26T05:56:50.101Z,16.36
2018-05-26T05:58:50.318Z,16.49
2018-05-26T06:00:50.458Z,16.56
2018-05-26T06:02:50.670Z,16.61
2018-05-26T06:04:50.069Z,16.71
2018-05-26T06:06:50.373Z,16.76
2018-05-26T06:08:50.564Z,16.80
2018-05-26T06:10:50.737Z,16.81
2018-05-26T06:12:50.000Z,16.88
2018-05-26T06:14:50.541Z,16.93
2018-05-26T06:16:49.983Z,16.97
2018-05-26T06:18:50.315Z,17.02
2018-05-26T06:20:50.556Z,17.12
2018-05-26T06:22:50.763Z,17.27
2018-05-26T06:24:50.027Z,17.27
2018-05-26T06:26:50.362Z,17.52
2018-05-26T06:28:50.555Z,17.71
2018-05-26T06:30:50.747Z,17.75
2018-05-26T06:32:49.946Z,17.90
2018-05-26T06:34:50.245Z,17.99
2018-05-26T06:36:50.595Z,18.08
2018-05-26T06:38:50.851Z,18.18
2018-05-26T06:40:50.133Z,18.16
2018-05-26T06:42:50.273Z,18.05
2018-05-26T06:44:50.480Z,18.07
2018-05-26T06:46:50.816Z,18.13
2018-05-26T06:48:49.941Z,18.31
2018-05-26T06:50:50.150Z,18.31
2018-05-26T06:52:50.209Z,18.4
2018-05-26T06:54:50.294Z,18.5
2018-05-26T06:56:50.624Z,18.57
2018-05-26T06:58:50.900Z,18.6
2018-05-26T07:00:50.070Z,18.6
2018-05-26T07:02:50.385Z,18.8
2018-05-26T07:04:50.910Z,18.8
2018-05-26T07:06:50.158Z,18.9
2018-05-26T07:08:50.306Z,19.0
2018-05-26T07:10:50.480Z,19.0
2018-05-26T07:12:50.624Z,19.1
2018-05-26T07:14:50.795Z,19.2
2018-05-26T07:16:49.936Z,19.4
2018-05-26T07:18:50.129Z,19.4
2018-05-26T07:20:50.454Z,19.4
2018-05-26T07:22:50.674Z,19.5
2018-05-26T07:24:50.849Z,19.6
2018-05-26T07:26:50.125Z,19.6
2018-05-26T07:28:50.223Z,19.7
2018-05-26T07:30:50.408Z,19.8
2018-05-26T07:32:50.621Z,19.9
2018-05-26T07:34:49.972Z,20.0
2018-05-26T07:36:50.293Z,20.1
2018-05-26T07:38:50.520Z,20.1
2018-05-26T07:40:50.720Z,20.2
2018-05-26T07:42:49.912Z,20.2
2018-05-26T07:44:50.103Z,20.3
2018-05-26T07:46:50.362Z,20.3
2018-05-26T07:48:50.498Z,20.4
2018-05-26T07:50:50.671Z,20.5
2018-05-26T07:52:50.889Z,20.6
2018-05-26T07:54:50.007Z,20.7
2018-05-26T07:56:50.436Z,20.8
2018-05-26T07:58:50.737Z,20.8
2018-05-26T08:00:50.273Z,20.9
2018-05-26T08:02:50.591Z,21.0
2018-05-26T08:04:50.009Z,21.1
2018-05-26T08:06:50.321Z,21.2
2018-05-26T08:08:50.546Z,21.2
2018-05-26T08:10:51.066Z,21.3
2018-05-26T08:12:50.345Z,21.4
2018-05-26T08:14:50.485Z,21.4
2018-05-26T08:16:50.811Z,21.4
2018-05-26T08:18:49.965Z,21.5
2018-05-26T08:20:50.080Z,21.5
2018-05-26T08:22:50.289Z,21.6
2018-05-26T08:24:50.447Z,21.7
2018-05-26T08:26:50.722Z,21.7
2018-05-26T08:28:50.836Z,21.8
2018-05-26T08:30:49.990Z,21.8
2018-05-26T08:32:50.198Z,21.9
2018-05-26T08:34:50.712Z,22.0
2018-05-26T08:36:50.040Z,22.0
2018-05-26T08:38:50.278Z,22.1
2018-05-26T08:40:50.417Z,22.2
2018-05-26T08:42:50.659Z,22.2
2018-05-26T08:44:50.852Z,22.2
2018-05-26T08:46:50.321Z,22.4
2018-05-26T08:48:50.466Z,22.4
2018-05-26T08:50:50.666Z,22.5
2018-05-26T08:52:50.779Z,22.6
2018-05-26T08:54:50.180Z,22.6
2018-05-26T08:56:50.406Z,22.6
2018-05-26T08:58:50.597Z,22.8
2018-05-26T09:00:50.786Z,22.9
2018-05-26T09:02:49.910Z,22.9
2018-05-26T09:04:50.230Z,22.9
2018-05-26T09:06:50.594Z,23.0
2018-05-26T09:08:50.791Z,23.0
2018-05-26T09:10:49.906Z,22.86
2018-05-26T09:12:50.084Z,22.83
2018-05-26T09:14:50.412Z,23.0
2018-05-26T09:16:50.866Z,23.0
2018-05-26T09:18:50.140Z,23.1
2018-05-26T09:20:50.403Z,23.2
2018-05-26T09:22:50.641Z,23.2
2018-05-26T09:24:50.931Z,23.4
2018-05-26T09:26:50.284Z,23.5
2018-05-26T09:28:50.436Z,23.7
2018-05-26T09:30:50.566Z,23.7
2018-05-26T09:32:50.708Z,23.8
2018-05-26T09:34:50.052Z,24.0
2018-05-26T09:36:50.313Z,24.0
2018-05-26T09:38:50.448Z,24.2
2018-05-26T09:40:50.648Z,24.2
2018-05-26T09:42:50.869Z,24.2
2018-05-26T09:44:50.020Z,24.2
2018-05-26T09:46:50.254Z,24.2
2018-05-26T09:48:50.445Z,24.2
2018-05-26T09:50:50.587Z,24.2
2018-05-26T09:52:50.857Z,24.2
2018-05-26T09:54:49.984Z,24.2
2018-05-26T09:56:50.261Z,24.2
2018-05-26T09:58:50.405Z,24.15
2018-05-26T10:00:50.571Z,24.2
2018-05-26T10:02:50.771Z,24.2
2018-05-26T10:04:50.143Z,24.5
2018-05-26T10:06:50.372Z,24.7
2018-05-26T10:08:50.508Z,24.7
2018-05-26T10:10:50.623Z,25.0
2018-05-26T10:12:50.735Z,25.0
2018-05-26T10:14:49.952Z,25.2
2018-05-26T10:16:50.197Z,25.4
2018-05-26T10:18:50.289Z,25.4
2018-05-26T10:20:50.514Z,25.5
2018-05-26T10:22:50.671Z,25.6
2018-05-26T10:24:49.962Z,25.7
2018-05-26T10:26:50.334Z,25.7
2018-05-26T10:28:50.507Z,25.7
2018-05-26T10:30:50.598Z,25.6
2018-05-26T10:32:50.799Z,25.6
2018-05-26T10:34:50.095Z,25.6
2018-05-26T10:36:50.375Z,25.6
2018-05-26T10:38:50.580Z,25.7
2018-05-26T10:40:50.770Z,25.8
2018-05-26T10:42:49.931Z,25.8
2018-05-26T10:44:50.057Z,25.8
2018-05-26T10:46:50.255Z,25.8
2018-05-26T10:48:50.468Z,25.8
2018-05-26T10:50:51.214Z,26.0
2018-05-26T10:52:51.214Z,26.1
2018-05-26T10:54:50.817Z,26.2
2018-05-26T10:56:51.116Z,26.3
2018-05-26T10:58:50.725Z,26.3
2018-05-26T11:00:50.922Z,26.5
2018-05-26T11:02:50.337Z,26.6
2018-05-26T11:04:50.650Z,26.8
2018-05-26T11:06:50.682Z,26.8
2018-05-26T11:08:50.239Z,26.8
2018-05-26T11:10:50.344Z,26.9
2018-05-26T11:12:50.485Z,27.0
2018-05-26T11:14:50.610Z,27.0
2018-05-26T11:16:50.857Z,27.1
2018-05-26T11:18:50.047Z,27.2
2018-05-26T11:20:50.220Z,27.3
2018-05-26T11:22:50.334Z,27.4
2018-05-26T11:24:50.896Z,27.5
2018-05-26T11:26:50.315Z,27.5
2018-05-26T11:28:50.430Z,27.6
2018-05-26T11:30:50.909Z,27.7
2018-05-26T11:32:50.052Z,27.8
2018-05-26T11:34:50.499Z,27.8
2018-05-26T11:36:50.804Z,27.8
2018-05-26T11:38:49.933Z,27.8
2018-05-26T11:40:50.133Z,27.8
2018-05-26T11:42:50.350Z,27.7
2018-05-26T11:44:50.476Z,27.7
2018-05-26T11:46:50.691Z,27.8
2018-05-26T11:48:50.852Z,27.8
2018-05-26T11:50:50.078Z,27.9
2018-05-26T11:52:50.226Z,27.9
2018-05-26T11:54:50.318Z,27.9
2018-05-26T11:56:50.558Z,27.9
2018-05-26T11:58:50.717Z,27.9
2018-05-26T12:00:50.855Z,27.8
2018-05-26T12:02:49.952Z,27.8
2018-05-26T12:04:50.401Z,27.8
2018-05-26T12:06:50.634Z,27.8
2018-05-26T12:08:50.845Z,27.8
2018-05-26T12:10:50.334Z,27.9
2018-05-26T12:12:50.565Z,27.9
2018-05-26T12:14:50.856Z,27.9
2018-05-26T12:16:50.114Z,27.9
2018-05-26T12:18:50.244Z,28.0
2018-05-26T12:20:50.459Z,28.0
2018-05-26T12:22:50.625Z,28.0
2018-05-26T12:24:50.760Z,28.0
2018-05-26T12:26:50.542Z,28.0
2018-05-26T12:28:50.844Z,28.0
2018-05-26T12:30:49.992Z,28.0
2018-05-26T12:32:50.180Z,28.1
2018-05-26T12:34:50.499Z,28.1
2018-05-26T12:36:50.832Z,28.1
2018-05-26T12:38:50.096Z,28.2
2018-05-26T12:40:50.351Z,28.2
2018-05-26T12:42:50.496Z,28.2
2018-05-26T12:44:50.613Z,28.3
2018-05-26T12:46:50.864Z,28.3
2018-05-26T12:48:50.035Z,28.3
2018-05-26T12:50:50.185Z,28.2
2018-05-26T12:52:50.466Z,28.2
2018-05-26T12:54:50.635Z,28.0
2018-05-26T12:56:50.036Z,27.8
2018-05-26T12:58:50.253Z,27.7
2018-05-26T13:00:50.445Z,27.7
2018-05-26T13:02:50.624Z,27.5
2018-05-26T13:04:50.141Z,27.4
2018-05-26T13:06:50.529Z,27.4
2018-05-26T13:08:50.707Z,27.4
2018-05-26T13:10:49.930Z,27.4
2018-05-26T13:12:50.075Z,27.4
2018-05-26T13:14:50.290Z,27.4
2018-05-26T13:16:50.614Z,27.4
2018-05-26T13:18:50.841Z,27.4
2018-05-26T13:20:49.965Z,27.5
2018-05-26T13:22:50.125Z,27.5
2018-05-26T13:24:50.326Z,27.4
2018-05-26T13:26:50.762Z,27.4
2018-05-26T13:28:49.985Z,27.4
2018-05-26T13:30:50.210Z,27.2
2018-05-26T13:32:50.395Z,27.1
2018-05-26T13:34:49.978Z,27.1
2018-05-26T13:36:50.305Z,27.1
2018-05-26T13:38:50.513Z,27.1
2018-05-26T13:40:50.697Z,27.0
2018-05-26T13:42:50.806Z,26.9
2018-05-26T13:44:49.970Z,26.9
2018-05-26T13:46:50.222Z,26.9
2018-05-26T13:48:50.386Z,26.8
2018-05-26T13:50:50.649Z,26.8
2018-05-26T13:52:51.184Z,26.7
2018-05-26T13:54:50.698Z,26.6
2018-05-26T13:56:50.144Z,26.6
2018-05-26T13:58:50.310Z,26.6
2018-05-26T14:00:50.424Z,26.6
2018-05-26T14:02:50.517Z,26.4
2018-05-26T14:04:50.900Z,26.4
2018-05-26T14:06:50.254Z,26.4
2018-05-26T14:08:50.434Z,26.4
2018-05-26T14:10:50.637Z,26.4
2018-05-26T14:12:50.837Z,26.4
2018-05-26T14:14:50.131Z,26.4
2018-05-26T14:16:50.422Z,26.6
2018-05-26T14:18:50.599Z,26.7
2018-05-26T14:20:50.758Z,26.8
2018-05-26T14:22:49.977Z,26.9
2018-05-26T14:24:50.129Z,27.1
2018-05-26T14:26:50.436Z,27.1
2018-05-26T14:28:50.723Z,27.1
2018-05-26T14:30:50.845Z,27.2
2018-05-26T14:32:50.078Z,27.3
2018-05-26T14:34:50.441Z,27.4
2018-05-26T14:36:50.729Z,27.4
2018-05-26T14:38:49.952Z,27.3
2018-05-26T14:40:50.102Z,27.3
2018-05-26T14:42:50.204Z,27.4
2018-05-26T14:44:50.464Z,27.4
2018-05-26T14:46:50.701Z,27.5
2018-05-26T14:48:50.860Z,27.6
2018-05-26T14:50:49.993Z,27.7
2018-05-26T14:52:50.182Z,27.7
2018-05-26T14:54:50.378Z,27.7
2018-05-26T14:56:50.612Z,27.8
2018-05-26T14:58:50.769Z,27.8
2018-05-26T15:00:49.924Z,27.7
2018-05-26T15:02:50.028Z,27.7
2018-05-26T15:04:50.362Z,27.7
2018-05-26T15:06:50.635Z,27.8
2018-05-26T15:08:50.808Z,27.8
2018-05-26T15:10:49.896Z,27.9
2018-05-26T15:12:50.754Z,27.9
2018-05-26T15:14:50.155Z,27.9
2018-05-26T15:16:50.420Z,27.9
2018-05-26T15:18:50.605Z,27.8
2018-05-26T15:20:50.766Z,27.8
2018-05-26T15:22:49.996Z,27.8
2018-05-26T15:24:50.134Z,27.8
2018-05-26T15:26:50.347Z,27.8
2018-05-26T15:28:50.485Z,27.7
2018-05-26T15:30:50.624Z,27.7
2018-05-26T15:32:50.799Z,27.6
2018-05-26T15:34:50.235Z,27.6
2018-05-26T15:36:50.469Z,27.6
2018-05-26T15:38:50.661Z,27.6
2018-05-26T15:40:50.865Z,27.5
2018-05-26T15:42:49.933Z,27.4
2018-05-26T15:44:50.111Z,27.4
2018-05-26T15:46:50.326Z,27.3
2018-05-26T15:48:50.440Z,27.3
2018-05-26T15:50:50.608Z,27.3
2018-05-26T15:52:50.831Z,27.4
2018-05-26T15:54:50.030Z,27.4
2018-05-26T15:56:50.288Z,27.5
2018-05-26T15:58:50.459Z,27.6
2018-05-26T16:00:50.646Z,27.6
2018-05-26T16:02:49.942Z,27.6
2018-05-26T16:04:50.356Z,27.6
2018-05-26T16:06:50.762Z,27.5
2018-05-26T16:08:49.907Z,27.5
2018-05-26T16:10:50.097Z,27.5
2018-05-26T16:12:50.387Z,27.5
2018-05-26T16:14:50.486Z,27.4
2018-05-26T16:16:50.851Z,27.4
2018-05-26T16:18:49.954Z,27.4
2018-05-26T16:20:50.100Z,27.4
2018-05-26T16:22:50.294Z,27.4
2018-05-26T16:24:50.388Z,27.5
2018-05-26T16:26:50.613Z,27.5
2018-05-26T16:28:50.768Z,27.5
2018-05-26T16:30:49.932Z,27.5
2018-05-26T16:32:50.047Z,27.6
2018-05-26T16:34:50.509Z,27.5
2018-05-26T16:36:50.774Z,27.5
2018-05-26T16:38:49.952Z,27.37
2018-05-26T16:40:50.156Z,27.30
2018-05-26T16:42:50.293Z,27.17
2018-05-26T16:44:50.501Z,27.12
2018-05-26T16:46:50.888Z,27.12
2018-05-26T16:48:50.162Z,26.78
2018-05-26T16:50:50.324Z,26.58
2018-05-26T16:52:50.454Z,26.45
2018-05-26T16:54:50.693Z,26.43
2018-05-26T16:56:49.939Z,26.36
2018-05-26T16:58:50.504Z,26.33
2018-05-26T17:00:50.831Z,26.23
2018-05-26T17:02:49.965Z,26.23
2018-05-26T17:04:50.300Z,26.16
2018-05-26T17:06:50.567Z,26.22
2018-05-26T17:08:50.714Z,26.31
2018-05-26T17:10:50.861Z,26.34
2018-05-26T17:12:50.010Z,26.34
2018-05-26T17:14:50.128Z,26.34
2018-05-26T17:16:50.418Z,26.39
2018-05-26T17:18:50.591Z,26.41
2018-05-26T17:20:50.761Z,26.49
2018-05-26T17:22:50.027Z,26.51
2018-05-26T17:24:50.224Z,26.57
2018-05-26T17:26:50.559Z,26.59
2018-05-26T17:28:50.717Z,26.56
2018-05-26T17:30:51.116Z,26.56
2018-05-26T17:32:50.378Z,26.29
2018-05-26T17:34:50.803Z,26.24
2018-05-26T17:36:50.055Z,26.11
2018-05-26T17:38:50.181Z,26.09
2018-05-26T17:40:50.317Z,26.04
2018-05-26T17:42:50.484Z,25.99
2018-05-26T17:44:50.626Z,25.90
2018-05-26T17:46:49.961Z,25.78
2018-05-26T17:48:50.067Z,25.63
2018-05-26T17:50:50.216Z,25.50
2018-05-26T17:52:50.485Z,25.39
2018-05-26T17:54:50.579Z,25.28
2018-05-26T17:56:49.915Z,25.25
2018-05-26T17:58:50.103Z,25.16
2018-05-26T18:00:50.312Z,25.09
2018-05-26T18:02:50.588Z,25.02
2018-05-26T18:04:49.880Z,25.05
2018-05-26T18:06:50.079Z,25.09
2018-05-26T18:08:50.263Z,25.11
2018-05-26T18:10:50.396Z,25.07
2018-05-26T18:12:50.543Z,25.01
2018-05-26T18:14:50.712Z,24.93
2018-05-26T18:16:49.928Z,24.87
2018-05-26T18:18:50.094Z,24.87
2018-05-26T18:20:50.217Z,24.83
2018-05-26T18:22:50.099Z,24.77
2018-05-26T18:24:50.212Z,24.70
2018-05-26T18:26:50.519Z,24.63
2018-05-26T18:28:50.774Z,24.57
2018-05-26T18:30:50.937Z,24.49
2018-05-26T18:32:50.405Z,24.35
2018-05-26T18:34:49.908Z,24.26
2018-05-26T18:36:50.192Z,24.05
2018-05-26T18:38:50.289Z,23.97
2018-05-26T18:40:50.424Z,23.81
2018-05-26T18:42:50.602Z,23.66
2018-05-26T18:44:50.784Z,23.60
2018-05-26T18:46:50.062Z,23.28
2018-05-26T18:48:50.740Z,23.21
2018-05-26T18:50:49.930Z,23.02
2018-05-26T18:52:50.045Z,22.77
2018-05-26T18:54:50.137Z,22.77
2018-05-26T18:56:50.369Z,22.48
2018-05-26T18:58:50.522Z,22.32
2018-05-26T19:00:50.638Z,22.19
2018-05-26T19:02:50.810Z,21.91
2018-05-26T19:04:50.210Z,21.72
2018-05-26T19:06:50.487Z,21.53
2018-05-26T19:08:50.598Z,21.46
2018-05-26T19:10:50.748Z,21.33
2018-05-26T19:12:50.865Z,21.33
2018-05-26T19:14:49.950Z,21.13
2018-05-26T19:16:50.096Z,21.05
2018-05-26T19:18:50.275Z,20.98
2018-05-26T19:20:50.415Z,20.87
2018-05-26T19:22:50.602Z,20.80
2018-05-26T19:24:50.763Z,20.72
2018-05-26T19:26:49.969Z,20.72
2018-05-26T19:28:50.095Z,20.49
2018-05-26T19:30:50.289Z,20.43
2018-05-26T19:32:50.457Z,20.25
2018-05-26T19:34:50.762Z,20.20
2018-05-26T19:36:49.971Z,20.04
2018-05-26T19:38:50.177Z,19.96
2018-05-26T19:40:50.346Z,19.84
2018-05-26T19:42:50.467Z,19.72
2018-05-26T19:44:50.628Z,19.67
2018-05-26T19:46:49.953Z,19.54
2018-05-26T19:48:50.077Z,19.51
2018-05-26T19:50:50.224Z,19.47
2018-05-26T19:52:50.344Z,19.43
2018-05-26T19:54:50.492Z,19.39
2018-05-26T19:56:50.840Z,19.26
2018-05-26T19:58:49.935Z,19.20
2018-05-26T20:00:50.139Z,19.06
2018-05-26T20:02:50.271Z,19.01
2018-05-26T20:04:50.663Z,18.92
2018-05-26T20:06:49.951Z,18.92
2018-05-26T20:08:50.128Z,18.80
2018-05-26T20:10:50.257Z,18.77
2018-05-26T20:12:50.388Z,18.65
2018-05-26T20:14:50.536Z,18.59
2018-05-26T20:16:50.882Z,18.55
2018-05-26T20:18:50.008Z,18.51
2018-05-26T20:20:50.123Z,18.43
2018-05-26T20:22:50.300Z,18.40
2018-05-26T20:24:50.408Z,18.33
2018-05-26T20:26:50.725Z,18.28
2018-05-26T20:28:49.932Z,18.21
2018-05-26T20:30:50.098Z,18.13
2018-05-26T20:32:50.306Z,18.10
2018-05-26T20:34:50.654Z,18.04
2018-05-26T20:36:49.885Z,17.99
2018-05-26T20:38:50.024Z,17.94
2018-05-26T20:40:50.194Z,17.94
2018-05-26T20:42:50.407Z,17.85
2018-05-26T20:44:50.551Z,17.80
2018-05-26T20:46:50.753Z,17.79
2018-05-26T20:48:49.900Z,17.72
2018-05-26T20:50:49.989Z,17.65
2018-05-26T20:52:50.101Z,17.64
2018-05-26T20:54:50.250Z,17.65
2018-05-26T20:56:50.509Z,17.63
2018-05-26T20:58:50.610Z,17.58
2018-05-26T21:00:50.720Z,17.55
2018-05-26T21:02:49.954Z,17.50
2018-05-26T21:04:50.334Z,17.48
2018-05-26T21:06:50.872Z,17.43
2018-05-26T21:08:50.029Z,17.40
2018-05-26T21:10:50.234Z,17.35
2018-05-26T21:12:50.387Z,17.32
2018-05-26T21:14:50.542Z,17.30
2018-05-26T21:16:50.814Z,17.29
2018-05-26T21:18:50.073Z,17.28
2018-05-26T21:20:50.266Z,17.21
2018-05-26T21:22:50.422Z,17.17
2018-05-26T21:24:50.530Z,17.15
2018-05-26T21:26:50.757Z,17.13
2018-05-26T21:28:50.854Z,17.07
2018-05-26T21:30:50.007Z,17.04
2018-05-26T21:32:50.248Z,17.00
2018-05-26T21:34:50.570Z,17.00
2018-05-26T21:36:49.880Z,16.96
2018-05-26T21:38:49.979Z,16.92
2018-05-26T21:40:50.092Z,16.88
2018-05-26T21:42:50.270Z,16.85
2018-05-26T21:44:50.414Z,16.82
2018-05-26T21:46:50.716Z,16.82
2018-05-26T21:48:50.852Z,16.78
2018-05-26T21:50:50.009Z,16.76
2018-05-26T21:52:50.149Z,16.72
2018-05-26T21:54:50.357Z,16.70
2018-05-26T21:56:50.609Z,16.67
2018-05-26T21:58:50.817Z,16.59
2018-05-26T22:00:49.965Z,16.55
2018-05-26T22:02:50.082Z,16.55
2018-05-26T22:04:50.542Z,16.42
2018-05-26T22:06:49.980Z,16.39
2018-05-26T22:08:50.080Z,16.35
2018-05-26T22:10:50.249Z,16.31
2018-05-26T22:12:50.402Z,16.29
2018-05-26T22:14:50.519Z,16.29
2018-05-26T22:16:50.830Z,16.29
2018-05-26T22:18:49.971Z,16.29
2018-05-26T22:20:50.161Z,16.29
2018-05-26T22:22:50.287Z,16.29
2018-05-26T22:24:50.405Z,16.22
2018-05-26T22:26:50.655Z,16.20
2018-05-26T22:28:50.777Z,16.19
2018-05-26T22:30:49.924Z,16.16
2018-05-26T22:32:50.017Z,16.11
2018-05-26T22:34:50.413Z,16.09
2018-05-26T22:36:50.737Z,16.08
2018-05-26T22:38:50.835Z,16.05
2018-05-26T22:40:49.970Z,16.04
2018-05-26T22:42:50.192Z,16.02
2018-05-26T22:44:50.290Z,16.00
2018-05-26T22:46:50.572Z,15.95
2018-05-26T22:48:50.730Z,15.94
2018-05-26T22:50:50.865Z,15.90
2018-05-26T22:52:50.005Z,15.87
2018-05-26T22:54:50.165Z,15.85
2018-05-26T22:56:50.449Z,15.81
2018-05-26T22:58:50.602Z,15.76
2018-05-26T23:00:50.707Z,15.76
2018-05-26T23:02:49.919Z,15.72
2018-05-26T23:04:50.401Z,15.69
2018-05-26T23:06:50.642Z,15.68
2018-05-26T23:08:50.816Z,15.63
2018-05-26T23:10:49.978Z,15.62
2018-05-26T23:12:50.072Z,15.61
2018-05-26T23:14:50.191Z,15.56
2018-05-26T23:16:50.479Z,15.55
2018-05-26T23:18:50.621Z,15.53
2018-05-26T23:20:50.816Z,15.52
2018-05-26T23:22:49.936Z,15.48
2018-05-26T23:24:50.080Z,15.46
2018-05-26T23:26:50.270Z,15.41
2018-05-26T23:28:50.445Z,15.40
2018-05-26T23:30:50.600Z,15.37
2018-05-26T23:32:50.736Z,15.37
2018-05-26T23:34:50.237Z,15.32
2018-05-26T23:36:50.408Z,15.28
2018-05-26T23:38:50.554Z,15.26
2018-05-26T23:40:50.674Z,15.23
2018-05-26T23:42:50.790Z,15.22
2018-05-26T23:44:49.949Z,15.20
2018-05-26T23:46:50.197Z,15.15
2018-05-26T23:48:50.358Z,15.13
2018-05-26T23:50:50.521Z,15.08
2018-05-26T23:52:50.737Z,15.05
2018-05-26T23:54:50.842Z,15.06
2018-05-26T23:56:50.157Z,15.05
2018-05-26T23:58:50.259Z,15.04
